KAEL

Albert Lea Municipal Airport

Albert Lea, Minnesota, USA
METAR KAEL 201335Z AUTO 31014G23KT 280V340 10SM CLR 02/M03 A3010 RMK AO2
Observed Flight Rules
Oct-20 @ 13:35 UTC (14 minutes ago) Visual Flight Rules
Wind Visibility Clouds
310° at 14 knots
 Gusting to 23 knots
10 miles
  • Clear skies
Temperatures Readings
Current 2°C / 36°F
Dewpoint -3°C / 27°F
Humidity 70%
Altimeter 30.1" Hg
Pressure 1019 hPa
Elevation 383
METAR KAEL 201335Z AUTO 31014G23KT 280V340 10SM CLR 02/M03 A3010 RMK AO2
Observed Flight Rules
Oct-20 @ 13:35 UTC
(14 minutes ago)
VFR
Wind Visibility
310° at 14 knots
 Gusting to 23 knots
10 miles
Clouds
  • Clear skies
Temperature Dewpoint
2°C / 36°F -3°C / 27°F
Humidity Altimeter Pressure
70% 30.1" Hg 1019 hPa